sensor_id;sensor_type;location;lat;lon;timestamp;pressure;altitude;pressure_sealevel;temperature;humidity
63556;BME280;49700;48.072;7.800;2022-07-29T00:01:48;99214.41;;;20.47;66.47
63556;BME280;49700;48.072;7.800;2022-07-29T00:04:14;99207.38;;;20.46;67.04
63556;BME280;49700;48.072;7.800;2022-07-29T00:06:39;99208.06;;;20.40;67.18
63556;BME280;49700;48.072;7.800;2022-07-29T00:09:05;99207.59;;;20.37;67.13
63556;BME280;49700;48.072;7.800;2022-07-29T00:11:31;99198.44;;;20.31;67.45
63556;BME280;49700;48.072;7.800;2022-07-29T00:13:56;99207.28;;;20.23;67.58
63556;BME280;49700;48.072;7.800;2022-07-29T00:16:22;99209.13;;;20.23;67.51
63556;BME280;49700;48.072;7.800;2022-07-29T00:18:48;99204.78;;;20.22;67.72
63556;BME280;49700;48.072;7.800;2022-07-29T00:21:13;99198.75;;;20.20;67.90
63556;BME280;49700;48.072;7.800;2022-07-29T00:23:39;99206.63;;;20.13;67.99
63556;BME280;49700;48.072;7.800;2022-07-29T00:26:04;99207.44;;;20.14;67.94
63556;BME280;49700;48.072;7.800;2022-07-29T00:28:29;99205.59;;;20.14;67.98
63556;BME280;49700;48.072;7.800;2022-07-29T00:30:55;99197.13;;;20.10;67.93
63556;BME280;49700;48.072;7.800;2022-07-29T00:33:20;99200.28;;;20.06;68.65
63556;BME280;49700;48.072;7.800;2022-07-29T00:35:47;99195.16;;;19.96;68.71
63556;BME280;49700;48.072;7.800;2022-07-29T00:38:18;99194.81;;;19.91;69.07
63556;BME280;49700;48.072;7.800;2022-07-29T00:40:44;99201.13;;;19.90;68.82
63556;BME280;49700;48.072;7.800;2022-07-29T00:43:11;99193.31;;;19.88;68.85
63556;BME280;49700;48.072;7.800;2022-07-29T00:45:36;99187.66;;;19.92;68.88
63556;BME280;49700;48.072;7.800;2022-07-29T00:48:02;99191.81;;;19.94;68.54
63556;BME280;49700;48.072;7.800;2022-07-29T00:50:30;99184.97;;;19.92;68.72
63556;BME280;49700;48.072;7.800;2022-07-29T00:52:56;99189.16;;;19.86;69.12
63556;BME280;49700;48.072;7.800;2022-07-29T00:55:22;99186.31;;;19.79;69.25
63556;BME280;49700;48.072;7.800;2022-07-29T00:57:48;99188.97;;;19.79;69.37
63556;BME280;49700;48.072;7.800;2022-07-29T01:00:18;99199.81;;;19.78;69.46
63556;BME280;49700;48.072;7.800;2022-07-29T01:02:44;99198.16;;;19.77;69.43
63556;BME280;49700;48.072;7.800;2022-07-29T01:05:11;99206.16;;;19.77;69.42
63556;BME280;49700;48.072;7.800;2022-07-29T01:07:38;99204.13;;;19.71;69.54
63556;BME280;49700;48.072;7.800;2022-07-29T01:10:06;99201.44;;;19.62;69.74
63556;BME280;49700;48.072;7.800;2022-07-29T01:12:34;99203.94;;;19.56;70.06
63556;BME280;49700;48.072;7.800;2022-07-29T01:15:02;99197.44;;;19.50;70.12
63556;BME280;49700;48.072;7.800;2022-07-29T01:20:34;99187.63;;;19.51;70.32
63556;BME280;49700;48.072;7.800;2022-07-29T01:23:11;99185.78;;;19.51;70.23
63556;BME280;49700;48.072;7.800;2022-07-29T01:28:38;99186.59;;;19.52;70.09
63556;BME280;49700;48.072;7.800;2022-07-29T01:31:05;99188.63;;;19.50;70.77
63556;BME280;49700;48.072;7.800;2022-07-29T01:33:38;99178.94;;;19.40;70.89
63556;BME280;49700;48.072;7.800;2022-07-29T01:36:36;99177.78;;;19.35;70.92
63556;BME280;49700;48.072;7.800;2022-07-29T01:39:30;99186.59;;;19.35;70.85
63556;BME280;49700;48.072;7.800;2022-07-29T01:42:02;99179.44;;;19.36;70.29
63556;BME280;49700;48.072;7.800;2022-07-29T01:44:34;99185.28;;;19.31;70.71
63556;BME280;49700;48.072;7.800;2022-07-29T01:47:05;99181.44;;;19.26;70.53
63556;BME280;49700;48.072;7.800;2022-07-29T01:49:36;99180.75;;;19.15;71.24
63556;BME280;49700;48.072;7.800;2022-07-29T01:52:08;99192.34;;;19.06;71.27
63556;BME280;49700;48.072;7.800;2022-07-29T01:54:39;99197.16;;;19.02;71.55
63556;BME280;49700;48.072;7.800;2022-07-29T01:57:09;99192.03;;;19.01;71.49
63556;BME280;49700;48.072;7.800;2022-07-29T01:59:37;99197.84;;;19.05;71.16
63556;BME280;49700;48.072;7.800;2022-07-29T02:02:04;99195.53;;;19.10;71.61
63556;BME280;49700;48.072;7.800;2022-07-29T02:04:32;99197.38;;;19.09;71.45
63556;BME280;49700;48.072;7.800;2022-07-29T02:07:05;99192.88;;;19.10;71.53
63556;BME280;49700;48.072;7.800;2022-07-29T02:09:33;99191.72;;;19.12;71.22
63556;BME280;49700;48.072;7.800;2022-07-29T02:12:00;99194.38;;;19.12;71.01
63556;BME280;49700;48.072;7.800;2022-07-29T02:14:31;99201.69;;;19.10;71.20
63556;BME280;49700;48.072;7.800;2022-07-29T02:16:59;99193.72;;;19.10;71.02
63556;BME280;49700;48.072;7.800;2022-07-29T02:19:27;99192.06;;;19.09;70.91
63556;BME280;49700;48.072;7.800;2022-07-29T02:21:54;99198.34;;;19.08;70.91
63556;BME280;49700;48.072;7.800;2022-07-29T02:24:21;99199.03;;;19.10;70.87
63556;BME280;49700;48.072;7.800;2022-07-29T02:26:49;99198.03;;;19.11;70.73
63556;BME280;49700;48.072;7.800;2022-07-29T02:29:16;99193.22;;;19.07;70.88
63556;BME280;49700;48.072;7.800;2022-07-29T02:31:44;99195.34;;;19.03;71.14
63556;BME280;49700;48.072;7.800;2022-07-29T02:34:12;99194.50;;;19.02;70.83
63556;BME280;49700;48.072;7.800;2022-07-29T02:36:40;99202.81;;;18.99;71.09
63556;BME280;49700;48.072;7.800;2022-07-29T02:39:08;99199.47;;;18.97;71.11
63556;BME280;49700;48.072;7.800;2022-07-29T02:41:40;99199.81;;;18.94;71.16
63556;BME280;49700;48.072;7.800;2022-07-29T02:44:14;99203.81;;;18.90;71.12
63556;BME280;49700;48.072;7.800;2022-07-29T02:47:07;99201.28;;;18.89;71.25
63556;BME280;49700;48.072;7.800;2022-07-29T02:49:48;99202.78;;;18.83;71.40
63556;BME280;49700;48.072;7.800;2022-07-29T02:52:21;99203.09;;;18.80;71.45
63556;BME280;49700;48.072;7.800;2022-07-29T02:54:56;99198.91;;;18.77;71.35
63556;BME280;49700;48.072;7.800;2022-07-29T03:00:29;99210.19;;;18.71;71.59
63556;BME280;49700;48.072;7.800;2022-07-29T03:02:57;99206.84;;;18.69;72.08
63556;BME280;49700;48.072;7.800;2022-07-29T03:05:24;99209.13;;;18.64;72.32
63556;BME280;49700;48.072;7.800;2022-07-29T03:07:53;99206.13;;;18.59;72.25
63556;BME280;49700;48.072;7.800;2022-07-29T03:10:20;99199.97;;;18.58;72.34
63556;BME280;49700;48.072;7.800;2022-07-29T03:12:47;99197.00;;;18.62;72.42
63556;BME280;49700;48.072;7.800;2022-07-29T03:15:13;99192.47;;;18.54;72.43
63556;BME280;49700;48.072;7.800;2022-07-29T03:17:39;99193.75;;;18.42;72.57
63556;BME280;49700;48.072;7.800;2022-07-29T03:20:07;99187.88;;;18.38;73.05
63556;BME280;49700;48.072;7.800;2022-07-29T03:22:32;99197.00;;;18.35;72.72
63556;BME280;49700;48.072;7.800;2022-07-29T03:25:07;99195.34;;;18.34;72.83
63556;BME280;49700;48.072;7.800;2022-07-29T03:27:34;99194.66;;;18.32;72.96
63556;BME280;49700;48.072;7.800;2022-07-29T03:29:59;99189.03;;;18.35;72.95
63556;BME280;49700;48.072;7.800;2022-07-29T03:32:24;99191.38;;;18.39;72.65
63556;BME280;49700;48.072;7.800;2022-07-29T03:34:50;99195.88;;;18.38;73.05
63556;BME280;49700;48.072;7.800;2022-07-29T03:37:15;99211.00;;;18.38;72.82
63556;BME280;49700;48.072;7.800;2022-07-29T03:39:41;99212.81;;;18.37;72.58
63556;BME280;49700;48.072;7.800;2022-07-29T03:42:10;99204.16;;;18.35;73.05
63556;BME280;49700;48.072;7.800;2022-07-29T03:44:38;99195.88;;;18.38;72.91
63556;BME280;49700;48.072;7.800;2022-07-29T03:47:05;99209.16;;;18.38;72.60
63556;BME280;49700;48.072;7.800;2022-07-29T03:49:32;99211.69;;;18.40;72.80
63556;BME280;49700;48.072;7.800;2022-07-29T03:51:59;99210.53;;;18.42;72.55
63556;BME280;49700;48.072;7.800;2022-07-29T03:54:25;99215.00;;;18.42;72.65
63556;BME280;49700;48.072;7.800;2022-07-29T03:56:52;99208.34;;;18.38;72.75
63556;BME280;49700;48.072;7.800;2022-07-29T03:59:18;99213.31;;;18.41;72.55
63556;BME280;49700;48.072;7.800;2022-07-29T04:01:45;99204.53;;;18.40;72.45
63556;BME280;49700;48.072;7.800;2022-07-29T04:04:11;99206.72;;;18.45;72.82
63556;BME280;49700;48.072;7.800;2022-07-29T04:06:45;99202.69;;;18.41;72.86
63556;BME280;49700;48.072;7.800;2022-07-29T04:09:11;99213.50;;;18.39;72.85
63556;BME280;49700;48.072;7.800;2022-07-29T04:11:41;99202.53;;;18.42;72.61
63556;BME280;49700;48.072;7.800;2022-07-29T04:14:07;99204.19;;;18.43;72.30
63556;BME280;49700;48.072;7.800;2022-07-29T04:16:32;99214.53;;;18.46;72.26
63556;BME280;49700;48.072;7.800;2022-07-29T04:18:58;99207.91;;;18.50;72.33
63556;BME280;49700;48.072;7.800;2022-07-29T04:21:24;99217.22;;;18.54;72.10
63556;BME280;49700;48.072;7.800;2022-07-29T04:23:50;99222.09;;;18.59;71.72
63556;BME280;49700;48.072;7.800;2022-07-29T04:26:19;99214.28;;;18.66;71.72
63556;BME280;49700;48.072;7.800;2022-07-29T04:28:45;99219.59;;;18.66;71.38
63556;BME280;49700;48.072;7.800;2022-07-29T04:31:12;99223.13;;;18.66;71.54
63556;BME280;49700;48.072;7.800;2022-07-29T04:33:38;99223.78;;;18.68;71.53
63556;BME280;49700;48.072;7.800;2022-07-29T04:36:04;99220.13;;;18.69;71.36
63556;BME280;49700;48.072;7.800;2022-07-29T04:38:30;99229.78;;;18.70;71.26
63556;BME280;49700;48.072;7.800;2022-07-29T04:40:55;99226.97;;;18.72;71.23
63556;BME280;49700;48.072;7.800;2022-07-29T04:43:20;99230.53;;;18.81;71.04
63556;BME280;49700;48.072;7.800;2022-07-29T04:45:46;99229.88;;;18.87;70.61
63556;BME280;49700;48.072;7.800;2022-07-29T04:48:11;99238.56;;;18.97;70.07
63556;BME280;49700;48.072;7.800;2022-07-29T04:50:40;99240.25;;;19.06;69.89
63556;BME280;49700;48.072;7.800;2022-07-29T04:53:05;99249.13;;;19.15;69.70
63556;BME280;49700;48.072;7.800;2022-07-29T04:55:31;99239.13;;;19.17;69.38
63556;BME280;49700;48.072;7.800;2022-07-29T04:57:56;99243.16;;;19.21;69.35
63556;BME280;49700;48.072;7.800;2022-07-29T05:00:22;99240.31;;;19.22;69.16
63556;BME280;49700;48.072;7.800;2022-07-29T05:02:48;99237.97;;;19.19;69.41
63556;BME280;49700;48.072;7.800;2022-07-29T05:05:14;99241.97;;;19.15;69.68
63556;BME280;49700;48.072;7.800;2022-07-29T05:07:39;99243.28;;;19.11;69.74
63556;BME280;49700;48.072;7.800;2022-07-29T05:10:05;99247.97;;;19.09;69.92
63556;BME280;49700;48.072;7.800;2022-07-29T05:12:30;99246.94;;;19.10;69.81
63556;BME280;49700;48.072;7.800;2022-07-29T05:14:55;99250.13;;;19.14;69.58
63556;BME280;49700;48.072;7.800;2022-07-29T05:17:21;99251.28;;;19.19;69.64
63556;BME280;49700;48.072;7.800;2022-07-29T05:19:46;99253.97;;;19.28;69.36
63556;BME280;49700;48.072;7.800;2022-07-29T05:22:12;99263.31;;;19.32;69.52
63556;BME280;49700;48.072;7.800;2022-07-29T05:24:37;99264.47;;;19.29;69.75
63556;BME280;49700;48.072;7.800;2022-07-29T05:27:03;99266.47;;;19.27;69.65
63556;BME280;49700;48.072;7.800;2022-07-29T05:29:28;99273.78;;;19.25;69.83
63556;BME280;49700;48.072;7.800;2022-07-29T05:31:54;99268.16;;;19.28;70.01
63556;BME280;49700;48.072;7.800;2022-07-29T05:34:19;99284.59;;;19.23;70.33
63556;BME280;49700;48.072;7.800;2022-07-29T05:36:45;99278.59;;;19.21;70.28
63556;BME280;49700;48.072;7.800;2022-07-29T05:39:11;99283.44;;;19.26;70.07
63556;BME280;49700;48.072;7.800;2022-07-29T05:41:38;99284.16;;;19.36;69.63
63556;BME280;49700;48.072;7.800;2022-07-29T05:44:21;99279.03;;;19.51;69.40
63556;BME280;49700;48.072;7.800;2022-07-29T05:46:46;99289.03;;;19.65;68.94
63556;BME280;49700;48.072;7.800;2022-07-29T05:49:11;99289.41;;;19.79;68.20
63556;BME280;49700;48.072;7.800;2022-07-29T05:51:37;99281.13;;;19.98;67.26
63556;BME280;49700;48.072;7.800;2022-07-29T05:54:02;99288.94;;;20.24;66.53
63556;BME280;49700;48.072;7.800;2022-07-29T05:56:28;99288.44;;;20.21;66.32
63556;BME280;49700;48.072;7.800;2022-07-29T05:58:53;99293.09;;;20.35;66.00
63556;BME280;49700;48.072;7.800;2022-07-29T06:01:19;99299.59;;;20.32;65.71
63556;BME280;49700;48.072;7.800;2022-07-29T06:03:44;99300.63;;;20.31;66.13
63556;BME280;49700;48.072;7.800;2022-07-29T06:06:10;99304.25;;;20.39;65.78
63556;BME280;49700;48.072;7.800;2022-07-29T06:08:36;99293.78;;;20.62;64.85
63556;BME280;49700;48.072;7.800;2022-07-29T06:11:02;99294.50;;;21.42;62.17
63556;BME280;49700;48.072;7.800;2022-07-29T06:13:29;99293.19;;;22.39;58.89
63556;BME280;49700;48.072;7.800;2022-07-29T06:15:55;99299.97;;;22.94;57.02
63556;BME280;49700;48.072;7.800;2022-07-29T06:18:20;99300.44;;;22.83;57.27
63556;BME280;49700;48.072;7.800;2022-07-29T06:20:49;99294.44;;;23.10;56.68
63556;BME280;49700;48.072;7.800;2022-07-29T06:23:15;99297.16;;;24.47;52.82
63556;BME280;49700;48.072;7.800;2022-07-29T06:25:40;99293.72;;;25.23;50.54
63556;BME280;49700;48.072;7.800;2022-07-29T06:28:06;99285.88;;;26.49;47.51
63556;BME280;49700;48.072;7.800;2022-07-29T06:30:31;99281.44;;;27.60;44.20
63556;BME280;49700;48.072;7.800;2022-07-29T06:32:57;99280.06;;;28.39;42.16
63556;BME280;49700;48.072;7.800;2022-07-29T06:35:22;99275.94;;;28.80;40.58
63556;BME280;49700;48.072;7.800;2022-07-29T06:37:48;99281.22;;;29.30;39.55
63556;BME280;49700;48.072;7.800;2022-07-29T06:40:13;99275.34;;;28.97;40.45
63556;BME280;49700;48.072;7.800;2022-07-29T06:42:57;99282.25;;;28.24;41.92
63556;BME280;49700;48.072;7.800;2022-07-29T06:45:23;99281.81;;;27.64;43.60
63556;BME280;49700;48.072;7.800;2022-07-29T06:47:49;99281.78;;;27.70;43.34
63556;BME280;49700;48.072;7.800;2022-07-29T06:50:15;99286.84;;;28.23;42.25
63556;BME280;49700;48.072;7.800;2022-07-29T06:52:40;99296.44;;;28.19;42.16
63556;BME280;49700;48.072;7.800;2022-07-29T06:55:06;99296.84;;;28.16;41.97
63556;BME280;49700;48.072;7.800;2022-07-29T06:57:33;99289.94;;;28.52;40.65
63556;BME280;49700;48.072;7.800;2022-07-29T06:59:58;99288.56;;;29.42;39.03
63556;BME280;49700;48.072;7.800;2022-07-29T07:02:24;99282.09;;;30.03;37.45
63556;BME280;49700;48.072;7.800;2022-07-29T07:04:49;99285.34;;;30.47;36.16
63556;BME280;49700;48.072;7.800;2022-07-29T07:07:15;99292.94;;;30.03;37.13
63556;BME280;49700;48.072;7.800;2022-07-29T07:09:40;99289.41;;;30.14;36.81
63556;BME280;49700;48.072;7.800;2022-07-29T07:12:06;99296.53;;;29.85;36.64
63556;BME280;49700;48.072;7.800;2022-07-29T07:14:32;99306.44;;;29.43;36.81
63556;BME280;49700;48.072;7.800;2022-07-29T07:16:57;99307.69;;;29.59;36.43
63556;BME280;49700;48.072;7.800;2022-07-29T07:19:25;99313.25;;;30.59;34.89
63556;BME280;49700;48.072;7.800;2022-07-29T07:21:52;99307.88;;;31.35;32.75
63556;BME280;49700;48.072;7.800;2022-07-29T07:24:18;99309.53;;;31.77;31.82
63556;BME280;49700;48.072;7.800;2022-07-29T07:26:43;99315.88;;;31.53;32.02
63556;BME280;49700;48.072;7.800;2022-07-29T07:29:09;99318.00;;;31.11;33.04
63556;BME280;49700;48.072;7.800;2022-07-29T07:31:35;99312.69;;;31.85;31.96
63556;BME280;49700;48.072;7.800;2022-07-29T07:34:01;99305.53;;;32.25;30.77
63556;BME280;49700;48.072;7.800;2022-07-29T07:36:26;99317.25;;;31.68;31.95
63556;BME280;49700;48.072;7.800;2022-07-29T07:38:51;99320.22;;;30.67;33.53
63556;BME280;49700;48.072;7.800;2022-07-29T07:41:17;99326.59;;;29.47;35.31
63556;BME280;49700;48.072;7.800;2022-07-29T07:43:42;99341.34;;;28.71;37.18
63556;BME280;49700;48.072;7.800;2022-07-29T07:46:08;99339.97;;;28.30;38.21
63556;BME280;49700;48.072;7.800;2022-07-29T07:48:33;99349.31;;;28.02;38.91
63556;BME280;49700;48.072;7.800;2022-07-29T07:51:00;99348.94;;;27.92;39.36
63556;BME280;49700;48.072;7.800;2022-07-29T07:53:25;99346.44;;;27.97;38.93
63556;BME280;49700;48.072;7.800;2022-07-29T07:55:51;99346.03;;;27.93;39.37
63556;BME280;49700;48.072;7.800;2022-07-29T07:58:16;99345.41;;;27.46;40.35
63556;BME280;49700;48.072;7.800;2022-07-29T08:00:42;99351.78;;;26.87;41.70
63556;BME280;49700;48.072;7.800;2022-07-29T08:03:07;99341.25;;;26.52;42.49
63556;BME280;49700;48.072;7.800;2022-07-29T08:05:33;99337.88;;;26.30;43.18
63556;BME280;49700;48.072;7.800;2022-07-29T08:07:59;99337.66;;;26.18;43.60
63556;BME280;49700;48.072;7.800;2022-07-29T08:10:24;99344.88;;;26.11;43.79
63556;BME280;49700;48.072;7.800;2022-07-29T08:13:09;99335.34;;;26.02;43.98
63556;BME280;49700;48.072;7.800;2022-07-29T08:15:38;99344.69;;;26.06;44.09
63556;BME280;49700;48.072;7.800;2022-07-29T08:18:04;99338.69;;;26.04;44.16
63556;BME280;49700;48.072;7.800;2022-07-29T08:20:29;99342.59;;;26.08;44.01
63556;BME280;49700;48.072;7.800;2022-07-29T08:22:57;99333.31;;;26.37;43.54
63556;BME280;49700;48.072;7.800;2022-07-29T08:25:22;99328.81;;;26.58;43.25
63556;BME280;49700;48.072;7.800;2022-07-29T08:27:48;99333.97;;;26.66;42.89
63556;BME280;49700;48.072;7.800;2022-07-29T08:30:13;99339.78;;;26.63;43.52
63556;BME280;49700;48.072;7.800;2022-07-29T08:32:39;99342.06;;;26.66;43.45
63556;BME280;49700;48.072;7.800;2022-07-29T08:35:05;99340.38;;;26.78;43.47
63556;BME280;49700;48.072;7.800;2022-07-29T08:37:30;99339.09;;;26.94;42.97
63556;BME280;49700;48.072;7.800;2022-07-29T08:39:56;99334.94;;;27.05;42.67
63556;BME280;49700;48.072;7.800;2022-07-29T08:42:21;99338.03;;;27.22;42.13
63556;BME280;49700;48.072;7.800;2022-07-29T08:44:47;99338.41;;;27.32;41.60
63556;BME280;49700;48.072;7.800;2022-07-29T08:47:15;99342.13;;;27.44;41.12
63556;BME280;49700;48.072;7.800;2022-07-29T08:49:41;99336.91;;;27.49;41.07
63556;BME280;49700;48.072;7.800;2022-07-29T08:52:10;99333.78;;;27.46;40.98
63556;BME280;49700;48.072;7.800;2022-07-29T08:54:39;99333.25;;;27.24;41.40
63556;BME280;49700;48.072;7.800;2022-07-29T08:57:09;99334.94;;;27.05;41.91
63556;BME280;49700;48.072;7.800;2022-07-29T08:59:38;99339.72;;;26.96;42.09
63556;BME280;49700;48.072;7.800;2022-07-29T09:02:11;99333.50;;;26.89;42.53
63556;BME280;49700;48.072;7.800;2022-07-29T09:04:38;99338.31;;;26.80;42.81
63556;BME280;49700;48.072;7.800;2022-07-29T09:07:04;99342.88;;;26.80;43.03
63556;BME280;49700;48.072;7.800;2022-07-29T09:09:33;99340.78;;;26.95;42.89
63556;BME280;49700;48.072;7.800;2022-07-29T09:11:59;99338.25;;;27.00;42.98
63556;BME280;49700;48.072;7.800;2022-07-29T09:14:24;99336.00;;;27.04;43.06
63556;BME280;49700;48.072;7.800;2022-07-29T09:16:55;99339.34;;;26.92;43.11
63556;BME280;49700;48.072;7.800;2022-07-29T09:19:24;99341.19;;;26.79;43.47
63556;BME280;49700;48.072;7.800;2022-07-29T09:21:51;99343.94;;;26.65;43.71
63556;BME280;49700;48.072;7.800;2022-07-29T09:24:22;99333.13;;;26.45;43.85
63556;BME280;49700;48.072;7.800;2022-07-29T09:26:48;99324.41;;;26.37;43.94
63556;BME280;49700;48.072;7.800;2022-07-29T09:29:22;99324.41;;;26.30;44.02
63556;BME280;49700;48.072;7.800;2022-07-29T09:31:50;99332.09;;;26.33;44.41
63556;BME280;49700;48.072;7.800;2022-07-29T09:34:24;99332.72;;;26.42;44.09
63556;BME280;49700;48.072;7.800;2022-07-29T09:36:51;99337.69;;;26.38;44.25
63556;BME280;49700;48.072;7.800;2022-07-29T09:39:30;99336.44;;;26.27;44.47
63556;BME280;49700;48.072;7.800;2022-07-29T09:41:58;99347.00;;;26.29;44.44
63556;BME280;49700;48.072;7.800;2022-07-29T09:44:25;99340.38;;;26.32;44.33
63556;BME280;49700;48.072;7.800;2022-07-29T09:46:57;99348.25;;;26.40;44.06
63556;BME280;49700;48.072;7.800;2022-07-29T09:49:24;99341.41;;;26.51;43.82
63556;BME280;49700;48.072;7.800;2022-07-29T09:52:09;99344.97;;;26.58;43.28
63556;BME280;49700;48.072;7.800;2022-07-29T09:54:36;99346.81;;;26.64;43.26
63556;BME280;49700;48.072;7.800;2022-07-29T09:57:07;99348.28;;;26.66;43.20
63556;BME280;49700;48.072;7.800;2022-07-29T09:59:34;99343.69;;;26.80;42.45
63556;BME280;49700;48.072;7.800;2022-07-29T10:01:59;99349.47;;;26.84;41.88
63556;BME280;49700;48.072;7.800;2022-07-29T10:04:39;99342.00;;;26.99;41.32
63556;BME280;49700;48.072;7.800;2022-07-29T10:07:04;99339.69;;;27.23;40.91
63556;BME280;49700;48.072;7.800;2022-07-29T10:09:31;99332.59;;;27.35;40.13
63556;BME280;49700;48.072;7.800;2022-07-29T10:12:12;99333.34;;;27.49;39.88
63556;BME280;49700;48.072;7.800;2022-07-29T10:14:42;99331.72;;;27.48;39.48
63556;BME280;49700;48.072;7.800;2022-07-29T10:17:09;99331.50;;;27.49;40.04
63556;BME280;49700;48.072;7.800;2022-07-29T10:19:38;99329.75;;;27.68;39.48
63556;BME280;49700;48.072;7.800;2022-07-29T10:22:07;99328.59;;;27.96;39.13
63556;BME280;49700;48.072;7.800;2022-07-29T10:24:37;99317.19;;;28.19;38.33
63556;BME280;49700;48.072;7.800;2022-07-29T10:27:05;99320.56;;;28.39;37.71
63556;BME280;49700;48.072;7.800;2022-07-29T10:29:31;99315.31;;;28.51;37.45
63556;BME280;49700;48.072;7.800;2022-07-29T10:37:52;99320.34;;;28.48;36.63
63556;BME280;49700;48.072;7.800;2022-07-29T10:43:29;99322.25;;;28.65;36.45
63556;BME280;49700;48.072;7.800;2022-07-29T10:45:59;99327.38;;;28.49;36.33
63556;BME280;49700;48.072;7.800;2022-07-29T10:48:25;99324.84;;;28.54;36.22
63556;BME280;49700;48.072;7.800;2022-07-29T10:50:58;99332.66;;;28.62;35.48
63556;BME280;49700;48.072;7.800;2022-07-29T10:53:46;99328.31;;;28.61;34.70
63556;BME280;49700;48.072;7.800;2022-07-29T10:56:26;99333.13;;;28.59;35.10
63556;BME280;49700;48.072;7.800;2022-07-29T11:01:46;99326.97;;;28.70;34.75
63556;BME280;49700;48.072;7.800;2022-07-29T11:04:12;99326.69;;;28.78;34.59
63556;BME280;49700;48.072;7.800;2022-07-29T11:09:29;99322.38;;;28.96;34.15
63556;BME280;49700;48.072;7.800;2022-07-29T11:11:59;99328.22;;;28.93;34.12
63556;BME280;49700;48.072;7.800;2022-07-29T11:14:58;99328.22;;;28.93;33.75
63556;BME280;49700;48.072;7.800;2022-07-29T11:17:25;99325.38;;;28.87;33.75
63556;BME280;49700;48.072;7.800;2022-07-29T11:19:51;99326.28;;;28.81;33.69
63556;BME280;49700;48.072;7.800;2022-07-29T11:22:34;99332.94;;;28.79;33.47
63556;BME280;49700;48.072;7.800;2022-07-29T11:25:25;99333.59;;;28.74;33.22
63556;BME280;49700;48.072;7.800;2022-07-29T11:27:52;99336.47;;;28.79;33.65
63556;BME280;49700;48.072;7.800;2022-07-29T11:30:19;99336.19;;;28.87;33.76
63556;BME280;49700;48.072;7.800;2022-07-29T11:32:45;99331.16;;;28.91;33.82
63556;BME280;49700;48.072;7.800;2022-07-29T11:37:40;99328.97;;;29.00;34.54
63556;BME280;49700;48.072;7.800;2022-07-29T11:45:15;99326.72;;;28.97;35.39
63556;BME280;49700;48.072;7.800;2022-07-29T11:50:18;99332.41;;;28.88;35.65
63556;BME280;49700;48.072;7.800;2022-07-29T11:52:51;99330.09;;;28.74;35.55
63556;BME280;49700;48.072;7.800;2022-07-29T11:55:19;99339.13;;;28.61;36.04
63556;BME280;49700;48.072;7.800;2022-07-29T11:57:47;99330.66;;;28.57;36.19
63556;BME280;49700;48.072;7.800;2022-07-29T12:00:30;99337.09;;;28.56;36.12
63556;BME280;49700;48.072;7.800;2022-07-29T12:02:57;99329.78;;;28.57;35.93
63556;BME280;49700;48.072;7.800;2022-07-29T12:05:35;99334.00;;;28.53;36.07
63556;BME280;49700;48.072;7.800;2022-07-29T12:08:19;99335.53;;;28.42;36.28
63556;BME280;49700;48.072;7.800;2022-07-29T12:10:50;99340.97;;;28.35;36.22
63556;BME280;49700;48.072;7.800;2022-07-29T12:13:18;99337.22;;;28.36;36.61
63556;BME280;49700;48.072;7.800;2022-07-29T12:15:52;99338.13;;;28.30;36.46
63556;BME280;49700;48.072;7.800;2022-07-29T12:18:19;99333.38;;;28.26;36.38
63556;BME280;49700;48.072;7.800;2022-07-29T12:20:46;99346.03;;;28.25;35.99
63556;BME280;49700;48.072;7.800;2022-07-29T12:23:12;99349.34;;;28.27;36.32
63556;BME280;49700;48.072;7.800;2022-07-29T12:25:39;99345.00;;;28.26;36.26
63556;BME280;49700;48.072;7.800;2022-07-29T12:28:10;99347.97;;;28.18;35.96
63556;BME280;49700;48.072;7.800;2022-07-29T12:30:45;99355.00;;;28.19;36.33
63556;BME280;49700;48.072;7.800;2022-07-29T12:33:26;99352.09;;;28.20;36.26
63556;BME280;49700;48.072;7.800;2022-07-29T12:36:00;99353.28;;;28.24;36.55
63556;BME280;49700;48.072;7.800;2022-07-29T12:38:26;99356.41;;;28.28;36.97
63556;BME280;49700;48.072;7.800;2022-07-29T12:40:53;99357.84;;;28.31;37.23
63556;BME280;49700;48.072;7.800;2022-07-29T12:43:21;99358.22;;;28.34;37.31
63556;BME280;49700;48.072;7.800;2022-07-29T12:45:51;99351.81;;;28.29;37.93
63556;BME280;49700;48.072;7.800;2022-07-29T12:48:35;99364.34;;;28.23;38.28
63556;BME280;49700;48.072;7.800;2022-07-29T12:51:02;99355.25;;;28.17;38.00
63556;BME280;49700;48.072;7.800;2022-07-29T12:53:29;99353.97;;;28.20;38.29
63556;BME280;49700;48.072;7.800;2022-07-29T12:55:56;99360.03;;;28.15;38.15
63556;BME280;49700;48.072;7.800;2022-07-29T12:58:41;99356.94;;;28.12;37.78
63556;BME280;49700;48.072;7.800;2022-07-29T13:01:10;99354.69;;;28.09;37.45
63556;BME280;49700;48.072;7.800;2022-07-29T13:03:53;99351.13;;;28.08;37.05
63556;BME280;49700;48.072;7.800;2022-07-29T13:06:40;99351.97;;;28.09;36.99
63556;BME280;49700;48.072;7.800;2022-07-29T13:09:11;99337.88;;;28.07;36.84
63556;BME280;49700;48.072;7.800;2022-07-29T13:11:49;99344.69;;;28.09;37.10
63556;BME280;49700;48.072;7.800;2022-07-29T13:19:41;99341.91;;;28.22;36.25
63556;BME280;49700;48.072;7.800;2022-07-29T13:22:11;99337.34;;;28.23;36.53
63556;BME280;49700;48.072;7.800;2022-07-29T13:24:58;99341.56;;;28.37;36.72
63556;BME280;49700;48.072;7.800;2022-07-29T13:27:28;99334.09;;;28.39;36.95
63556;BME280;49700;48.072;7.800;2022-07-29T13:29:56;99335.34;;;28.37;36.99
63556;BME280;49700;48.072;7.800;2022-07-29T13:32:23;99337.22;;;28.36;37.01
63556;BME280;49700;48.072;7.800;2022-07-29T13:34:50;99336.63;;;28.34;37.14
63556;BME280;49700;48.072;7.800;2022-07-29T13:37:17;99343.25;;;28.38;37.13
63556;BME280;49700;48.072;7.800;2022-07-29T13:39:42;99340.09;;;28.41;37.20
63556;BME280;49700;48.072;7.800;2022-07-29T13:42:08;99341.63;;;28.31;37.21
63556;BME280;49700;48.072;7.800;2022-07-29T13:44:35;99341.22;;;28.27;37.47
63556;BME280;49700;48.072;7.800;2022-07-29T13:47:00;99342.09;;;28.28;37.52